createdAt,value
2018-07-01T00:00:37.661Z,1.73
2018-07-01T00:03:05.750Z,2.30
2018-07-01T00:05:33.870Z,5.37
2018-07-01T00:08:01.974Z,1.00
2018-07-01T00:10:30.046Z,3.63
2018-07-01T00:12:58.200Z,1.53
2018-07-01T00:15:26.270Z,1.70
2018-07-01T00:17:55.014Z,0.83
2018-07-01T00:20:24.158Z,1.97
2018-07-01T00:22:53.117Z,3.50
2018-07-01T00:25:21.598Z,2.87
2018-07-01T00:27:49.855Z,1.03
2018-07-01T00:30:17.990Z,1.40
2018-07-01T00:32:46.068Z,1.20
2018-07-01T00:35:14.093Z,3.13
2018-07-01T00:37:42.187Z,2.33
2018-07-01T00:40:10.295Z,0.90
2018-07-01T00:42:38.403Z,2.00
2018-07-01T00:45:06.511Z,1.00
2018-07-01T00:47:34.617Z,0.60
2018-07-01T00:50:02.970Z,2.00
2018-07-01T00:52:31.036Z,1.33
2018-07-01T00:54:59.077Z,1.23
2018-07-01T00:57:27.208Z,4.03
2018-07-01T00:59:55.771Z,1.10
2018-07-01T01:02:24.727Z,0.80
2018-07-01T01:04:53.519Z,0.97
2018-07-01T01:07:21.684Z,0.80
2018-07-01T01:09:50.136Z,1.50
2018-07-01T01:12:18.232Z,0.90
2018-07-01T01:14:46.341Z,1.90
2018-07-01T01:17:14.415Z,1.47
2018-07-01T01:19:42.518Z,0.90
2018-07-01T01:22:10.634Z,4.70
2018-07-01T01:24:38.703Z,1.00
2018-07-01T01:27:06.770Z,1.40
2018-07-01T01:29:34.850Z,1.60
2018-07-01T01:32:02.918Z,10.27
2018-07-01T01:34:31.083Z,2.60
2018-07-01T01:36:59.219Z,14.57
2018-07-01T01:39:30.256Z,0.80
2018-07-01T01:42:03.494Z,1.90
2018-07-01T01:44:41.717Z,6.67
2018-07-01T01:47:15.159Z,2.30
2018-07-01T01:49:50.565Z,0.90
2018-07-01T01:52:31.070Z,1.33
2018-07-01T01:57:06.688Z,1.10
2018-07-01T01:59:42.661Z,1.10
2018-07-01T02:02:20.708Z,1.20
2018-07-01T02:04:56.534Z,3.63
2018-07-01T02:07:30.161Z,1.77
2018-07-01T02:09:58.448Z,2.30
2018-07-01T02:12:26.562Z,1.23
2018-07-01T02:15:00.378Z,1.40
2018-07-01T02:17:39.538Z,2.10
2018-07-01T02:20:08.709Z,2.30
2018-07-01T02:22:40.133Z,0.80
2018-07-01T02:25:12.684Z,2.10
2018-07-01T02:27:40.798Z,8.43
2018-07-01T02:30:09.331Z,2.17
2018-07-01T02:32:38.246Z,1.30
2018-07-01T02:35:07.308Z,2.50
2018-07-01T02:37:35.940Z,2.87
2018-07-01T02:40:04.844Z,3.00
2018-07-01T02:42:33.023Z,2.67
2018-07-01T02:45:01.105Z,3.33
2018-07-01T02:47:29.188Z,3.40
2018-07-01T02:49:57.258Z,1.47
2018-07-01T02:52:25.508Z,1.13
2018-07-01T02:54:53.696Z,5.10
2018-07-01T02:57:21.736Z,1.80
2018-07-01T02:59:49.783Z,4.43
2018-07-01T03:02:17.893Z,1.23
2018-07-01T03:04:45.945Z,0.90
2018-07-01T03:07:14.007Z,1.50
2018-07-01T03:09:42.078Z,1.30
2018-07-01T03:12:10.231Z,1.73
2018-07-01T03:14:39.105Z,1.93
2018-07-01T03:17:08.056Z,2.20
2018-07-01T03:19:36.845Z,1.17
2018-07-01T03:22:05.131Z,2.20
2018-07-01T03:24:33.343Z,1.50
2018-07-01T03:27:01.424Z,2.00
2018-07-01T03:29:29.557Z,1.70
2018-07-01T03:31:57.804Z,6.50
2018-07-01T03:34:25.845Z,2.00
2018-07-01T03:36:53.985Z,2.10
2018-07-01T03:39:22.029Z,3.00
2018-07-01T03:41:50.122Z,1.30
2018-07-01T03:44:18.192Z,1.20
2018-07-01T03:46:46.261Z,1.80
2018-07-01T03:49:14.323Z,1.40
2018-07-01T03:51:42.418Z,1.40
2018-07-01T03:54:10.718Z,2.83
2018-07-01T03:56:39.662Z,2.60
2018-07-01T03:59:08.675Z,3.30
2018-07-01T04:01:37.249Z,3.00
2018-07-01T04:04:05.448Z,1.30
2018-07-01T04:06:33.716Z,2.53
2018-07-01T04:09:01.790Z,1.03
2018-07-01T04:11:29.892Z,4.63
2018-07-01T04:13:57.941Z,1.67
2018-07-01T04:16:26.009Z,2.13
2018-07-01T04:18:54.083Z,1.47
2018-07-01T04:21:22.175Z,1.10
2018-07-01T04:23:50.241Z,1.87
2018-07-01T04:26:18.326Z,2.20
2018-07-01T04:28:46.394Z,12.50
2018-07-01T04:31:14.501Z,1.47
2018-07-01T04:33:42.521Z,1.93
2018-07-01T04:36:10.936Z,2.50
2018-07-01T04:38:45.913Z,1.50
2018-07-01T04:41:13.967Z,1.63
2018-07-01T04:43:42.132Z,9.40
2018-07-01T04:46:10.760Z,1.83
2018-07-01T04:48:39.969Z,1.37
2018-07-01T04:51:09.625Z,1.50
2018-07-01T04:53:38.433Z,1.67
2018-07-01T04:56:06.712Z,1.57
2018-07-01T04:58:34.933Z,5.20
2018-07-01T05:01:02.983Z,1.57
2018-07-01T05:03:31.091Z,15.57
2018-07-01T05:05:59.236Z,4.63
2018-07-01T05:08:27.325Z,2.53
2018-07-01T05:10:55.580Z,2.80
2018-07-01T05:13:23.658Z,2.20
2018-07-01T05:15:51.784Z,5.07
2018-07-01T05:18:19.874Z,1.23
2018-07-01T05:20:47.911Z,1.43
2018-07-01T05:23:16.040Z,2.30
2018-07-01T05:25:44.107Z,2.13
2018-07-01T05:28:12.401Z,3.27
2018-07-01T05:30:41.338Z,1.53
2018-07-01T05:33:10.337Z,3.23
2018-07-01T05:35:39.031Z,4.63
2018-07-01T05:38:07.269Z,3.90
2018-07-01T05:40:35.409Z,1.33
2018-07-01T05:43:03.485Z,2.60
2018-07-01T05:45:31.591Z,1.23
2018-07-01T05:47:59.697Z,1.63
2018-07-01T05:50:27.764Z,1.63
2018-07-01T05:52:55.832Z,1.40
2018-07-01T05:55:23.942Z,1.27
2018-07-01T05:57:52.045Z,2.30
2018-07-01T06:00:20.113Z,1.00
2018-07-01T06:02:48.217Z,6.67
2018-07-01T06:05:16.318Z,1.50
2018-07-01T06:07:44.453Z,3.47
2018-07-01T06:10:12.760Z,1.43
2018-07-01T06:12:41.681Z,1.23
2018-07-01T06:15:10.645Z,5.73
2018-07-01T06:17:39.427Z,11.07
2018-07-01T06:20:07.692Z,3.60
2018-07-01T06:22:35.874Z,3.47
2018-07-01T06:25:04.123Z,4.10
2018-07-01T06:27:32.183Z,4.20
2018-07-01T06:30:00.252Z,1.70
2018-07-01T06:32:28.284Z,1.50
2018-07-01T06:34:56.361Z,3.17
2018-07-01T06:37:24.503Z,2.80
2018-07-01T06:39:52.628Z,1.57
2018-07-01T06:42:20.733Z,1.50
2018-07-01T06:44:48.810Z,2.07
2018-07-01T06:47:16.869Z,1.00
2018-07-01T06:49:44.947Z,19.70
2018-07-01T06:52:13.680Z,2.97
2018-07-01T06:54:42.662Z,2.80
2018-07-01T06:57:11.552Z,3.90
2018-07-01T06:59:42.081Z,5.00
2018-07-01T07:02:10.868Z,4.53
2018-07-01T07:04:39.266Z,1.07
2018-07-01T07:07:08.748Z,1.33
2018-07-01T07:09:37.197Z,1.10
2018-07-01T07:12:05.257Z,2.70
2018-07-01T07:14:33.341Z,1.27
2018-07-01T07:17:01.396Z,5.67
2018-07-01T07:19:29.478Z,3.40
2018-07-01T07:21:57.529Z,1.67
2018-07-01T07:24:25.665Z,1.37
2018-07-01T07:26:53.724Z,1.10
2018-07-01T07:29:21.818Z,0.90
2018-07-01T07:31:49.858Z,2.93
2018-07-01T07:34:17.973Z,2.00
2018-07-01T07:36:46.018Z,5.70
2018-07-01T07:39:14.446Z,6.87
2018-07-01T07:41:43.536Z,3.93
2018-07-01T07:44:12.497Z,2.30
2018-07-01T07:46:41.184Z,1.23
2018-07-01T07:49:09.428Z,1.47
2018-07-01T07:51:37.583Z,2.43
2018-07-01T07:54:05.679Z,1.53
2018-07-01T07:56:33.733Z,6.70
2018-07-01T07:59:01.806Z,3.57
2018-07-01T08:01:29.891Z,1.57
2018-07-01T08:03:57.937Z,0.80
2018-07-01T08:06:26.012Z,3.07
2018-07-01T08:08:54.112Z,3.20
2018-07-01T08:11:22.248Z,1.17
2018-07-01T08:13:50.310Z,1.63
2018-07-01T08:16:18.388Z,1.03
2018-07-01T08:18:46.427Z,1.00
2018-07-01T08:21:15.023Z,2.50
2018-07-01T08:23:44.107Z,1.47
2018-07-01T08:26:12.891Z,4.67
2018-07-01T08:28:41.064Z,1.00
2018-07-01T08:31:09.332Z,3.27
2018-07-01T08:33:37.386Z,1.30
2018-07-01T08:36:05.469Z,3.20
2018-07-01T08:38:33.565Z,1.90
2018-07-01T08:41:01.652Z,59.30
2018-07-01T08:43:29.735Z,17.93
2018-07-01T08:45:57.831Z,6.77
2018-07-01T08:48:25.877Z,3.20
2018-07-01T08:50:53.962Z,4.43
2018-07-01T08:53:21.995Z,1.67
2018-07-01T08:55:50.076Z,2.70
2018-07-01T08:58:18.128Z,3.73
2018-07-01T09:00:46.564Z,2.23
2018-07-01T09:03:15.493Z,1.00
2018-07-01T09:05:43.636Z,1.77
2018-07-01T09:08:11.744Z,2.00
2018-07-01T09:10:40.185Z,1.37
2018-07-01T09:13:09.064Z,2.50
2018-07-01T09:15:38.157Z,1.03
2018-07-01T09:18:06.927Z,1.80
2018-07-01T09:20:35.391Z,2.43
2018-07-01T09:23:03.763Z,1.70
2018-07-01T09:25:31.963Z,3.53
2018-07-01T09:28:00.074Z,1.90
2018-07-01T09:30:28.171Z,8.20
2018-07-01T09:32:56.283Z,1.17
2018-07-01T09:35:24.375Z,2.00
2018-07-01T09:37:52.715Z,1.10
2018-07-01T09:40:20.776Z,6.53
2018-07-01T09:42:48.883Z,1.10
2018-07-01T09:45:17.085Z,2.20
2018-07-01T09:47:45.235Z,3.70
2018-07-01T09:50:13.397Z,1.03
2018-07-01T09:52:41.698Z,2.20
2018-07-01T09:55:10.481Z,1.10
2018-07-01T09:57:39.491Z,6.00
2018-07-01T10:00:08.414Z,1.67
2018-07-01T10:02:36.914Z,1.00
2018-07-01T10:05:05.151Z,2.00
2018-07-01T10:07:33.275Z,3.67
2018-07-01T10:10:01.369Z,0.83
2018-07-01T10:12:29.476Z,2.47
2018-07-01T10:14:57.536Z,1.20
2018-07-01T10:17:25.641Z,4.60
2018-07-01T10:19:53.714Z,4.53
2018-07-01T10:22:21.834Z,1.23
2018-07-01T10:24:49.901Z,2.37
2018-07-01T10:27:17.976Z,1.10
2018-07-01T10:29:46.017Z,0.90
2018-07-01T10:32:14.136Z,2.80
2018-07-01T10:34:42.456Z,4.10
2018-07-01T10:37:11.111Z,3.20
2018-07-01T10:39:40.383Z,1.53
2018-07-01T10:42:09.340Z,1.97
2018-07-01T10:44:37.923Z,2.27
2018-07-01T10:47:06.250Z,0.90
2018-07-01T10:49:34.593Z,2.25
2018-07-01T10:52:02.695Z,3.20
2018-07-01T10:54:30.753Z,1.33
2018-07-01T10:56:58.842Z,22.67
2018-07-01T10:59:26.878Z,4.10
2018-07-01T11:01:54.947Z,1.47
2018-07-01T11:04:23.006Z,4.20
2018-07-01T11:06:51.113Z,1.23
2018-07-01T11:09:19.205Z,6.40
2018-07-01T11:11:47.342Z,2.80
2018-07-01T11:14:15.358Z,2.77
2018-07-01T11:16:43.451Z,2.45
2018-07-01T11:19:11.979Z,4.30
2018-07-01T11:21:40.995Z,4.50
2018-07-01T11:24:09.947Z,4.40
2018-07-01T11:26:38.511Z,2.10
2018-07-01T11:29:06.756Z,2.23
2018-07-01T11:31:34.814Z,4.33
2018-07-01T11:34:02.889Z,3.07
2018-07-01T11:36:30.926Z,3.23
2018-07-01T11:38:59.016Z,2.70
2018-07-01T11:41:27.189Z,1.50
2018-07-01T11:43:55.265Z,1.70
2018-07-01T11:46:23.803Z,2.40
2018-07-01T11:48:51.952Z,2.20
2018-07-01T11:51:19.994Z,2.93
2018-07-01T11:53:48.164Z,3.50
2018-07-01T11:56:16.212Z,1.97
2018-07-01T11:58:44.289Z,1.53
2018-07-01T12:01:12.817Z,2.50
2018-07-01T12:03:41.892Z,2.80
2018-07-01T12:06:11.591Z,6.17
2018-07-01T12:08:40.567Z,1.70
2018-07-01T12:11:08.654Z,2.53
2018-07-01T12:13:36.909Z,6.80
2018-07-01T12:16:04.970Z,11.23
2018-07-01T12:18:33.062Z,5.70
2018-07-01T12:21:01.131Z,3.67
2018-07-01T12:23:29.310Z,3.90
2018-07-01T12:25:57.295Z,3.43
2018-07-01T12:28:25.366Z,3.33
2018-07-01T12:30:53.449Z,9.23
2018-07-01T12:33:21.520Z,5.13
2018-07-01T12:35:49.589Z,11.33
2018-07-01T12:38:17.665Z,4.83
2018-07-01T12:40:45.797Z,3.60
2018-07-01T12:43:14.173Z,9.13
2018-07-01T12:45:43.028Z,10.03
2018-07-01T12:48:12.290Z,8.27
2018-07-01T12:50:40.867Z,12.43
2018-07-01T12:53:09.064Z,6.37
2018-07-01T12:55:37.177Z,5.33
2018-07-01T12:58:05.362Z,12.40
2018-07-01T13:00:33.479Z,6.23
2018-07-01T13:03:01.572Z,7.50
2018-07-01T13:05:29.684Z,7.23
2018-07-01T13:07:57.802Z,7.07
2018-07-01T13:10:25.909Z,11.47
2018-07-01T13:12:53.998Z,10.40
2018-07-01T13:15:22.128Z,3.97
2018-07-01T13:17:50.177Z,13.37
2018-07-01T13:20:18.281Z,10.60
2018-07-01T13:22:46.332Z,4.23
2018-07-01T13:25:14.779Z,5.73
2018-07-01T13:27:43.619Z,8.27
2018-07-01T13:30:12.270Z,4.67
2018-07-01T13:32:40.458Z,5.23
2018-07-01T13:35:08.726Z,4.07
2018-07-01T13:37:36.814Z,4.97
2018-07-01T13:40:04.958Z,8.60
2018-07-01T13:42:33.010Z,13.10
2018-07-01T13:45:01.113Z,8.07
2018-07-01T13:47:29.195Z,8.83
2018-07-01T13:49:57.352Z,5.43
2018-07-01T13:52:25.359Z,4.40
2018-07-01T13:54:53.431Z,2.60
2018-07-01T13:57:21.529Z,3.73
2018-07-01T13:59:49.629Z,4.30
2018-07-01T14:02:17.680Z,3.23
2018-07-01T14:04:46.232Z,6.30
2018-07-01T14:07:14.983Z,4.13
2018-07-01T14:09:44.036Z,1.47
2018-07-01T14:12:12.872Z,8.73
2018-07-01T14:14:41.150Z,9.00
2018-07-01T14:17:09.466Z,12.60
2018-07-01T14:19:37.538Z,6.13
2018-07-01T14:22:05.641Z,2.97
2018-07-01T14:24:33.761Z,5.13
2018-07-01T14:27:01.961Z,2.70
2018-07-01T14:29:29.992Z,2.90
2018-07-01T14:31:58.025Z,5.67
2018-07-01T14:34:26.077Z,8.67
2018-07-01T14:36:54.159Z,2.43
2018-07-01T14:39:22.218Z,7.40
2018-07-01T14:41:50.341Z,2.70
2018-07-01T14:44:18.412Z,1.77
2018-07-01T14:46:46.901Z,2.50
2018-07-01T14:49:15.934Z,1.93
2018-07-01T14:51:44.896Z,5.00
2018-07-01T14:54:13.585Z,2.70
2018-07-01T14:56:41.806Z,2.10
2018-07-01T14:59:09.972Z,1.27
2018-07-01T15:01:38.046Z,2.00
2018-07-01T15:04:06.100Z,6.33
2018-07-01T15:06:34.178Z,10.30
2018-07-01T15:09:02.389Z,5.93
2018-07-01T15:11:30.502Z,2.53
2018-07-01T15:13:58.583Z,4.57
2018-07-01T15:16:26.712Z,2.03
2018-07-01T15:18:54.789Z,2.83
2018-07-01T15:21:22.854Z,3.50
2018-07-01T15:23:50.932Z,3.73
2018-07-01T15:26:19.049Z,1.47
2018-07-01T15:28:47.342Z,3.33
2018-07-01T15:31:15.995Z,4.30
2018-07-01T15:33:44.692Z,2.67
2018-07-01T15:36:12.874Z,1.47
2018-07-01T15:38:41.092Z,1.97
2018-07-01T15:41:09.171Z,2.90
2018-07-01T15:43:37.250Z,1.50
2018-07-01T15:46:05.632Z,2.00
2018-07-01T15:48:33.805Z,2.70
2018-07-01T15:51:01.883Z,15.93
2018-07-01T15:53:29.946Z,17.37
2018-07-01T15:55:58.047Z,277.50
2018-07-01T15:58:26.134Z,47.63
2018-07-01T16:00:54.221Z,801.10
2018-07-01T16:03:22.316Z,827.07
2018-07-01T16:05:50.493Z,454.63
2018-07-01T16:08:18.755Z,63.50
2018-07-01T16:10:48.468Z,5.73
2018-07-01T16:13:17.461Z,5.30
2018-07-01T16:15:46.824Z,5.03
2018-07-01T16:18:15.616Z,17.87
2018-07-01T16:20:44.002Z,50.37
2018-07-01T16:23:12.254Z,138.37
2018-07-01T16:25:46.735Z,572.43
2018-07-01T16:28:20.265Z,23.63
2018-07-01T16:30:48.752Z,4.23
2018-07-01T16:33:17.801Z,7.63
2018-07-01T16:35:46.926Z,4.60
2018-07-01T16:38:15.554Z,2.03
2018-07-01T16:40:43.854Z,1.93
2018-07-01T16:43:12.182Z,14.00
2018-07-01T16:45:40.262Z,3.73
2018-07-01T16:48:08.522Z,1.80
2018-07-01T16:50:36.790Z,3.80
2018-07-01T16:53:05.112Z,3.00
2018-07-01T16:55:34.235Z,2.93
2018-07-01T16:58:02.462Z,6.07
2018-07-01T17:00:30.663Z,2.63
2018-07-01T17:02:58.941Z,7.60
2018-07-01T17:05:27.292Z,2.17
2018-07-01T17:07:55.644Z,7.20
2018-07-01T17:10:23.967Z,4.80
2018-07-01T17:12:52.205Z,2.93
2018-07-01T17:15:20.545Z,8.43
2018-07-01T17:17:49.402Z,4.50
2018-07-01T17:20:18.518Z,2.00
2018-07-01T17:22:47.410Z,1.50
2018-07-01T17:25:15.781Z,1.60
2018-07-01T17:27:44.165Z,1.67
2018-07-01T17:30:12.363Z,3.70
2018-07-01T17:32:48.442Z,0.97
2018-07-01T17:35:19.608Z,1.43
2018-07-01T17:37:49.391Z,2.90
2018-07-01T17:40:21.298Z,6.00
2018-07-01T17:42:49.999Z,1.73
2018-07-01T17:45:22.129Z,1.27
2018-07-01T17:47:50.520Z,1.57
2018-07-01T17:50:19.535Z,4.97
2018-07-01T17:52:48.490Z,13.03
2018-07-01T17:55:16.970Z,3.80
2018-07-01T17:57:45.204Z,4.10
2018-07-01T18:00:13.271Z,2.20
2018-07-01T18:02:41.381Z,2.40
2018-07-01T18:05:09.484Z,4.20
2018-07-01T18:07:37.562Z,2.30
2018-07-01T18:10:05.723Z,4.13
2018-07-01T18:12:33.777Z,2.00
2018-07-01T18:15:01.899Z,2.30
2018-07-01T18:17:29.952Z,3.97
2018-07-01T18:19:58.039Z,4.40
2018-07-01T18:22:52.495Z,2.90
2018-07-01T18:25:04.495Z,2.20
2018-07-01T18:27:22.677Z,7.57
2018-07-01T18:29:51.171Z,2.60
2018-07-01T18:32:20.019Z,6.87
2018-07-01T18:34:51.492Z,2.70
2018-07-01T18:37:22.954Z,3.07
2018-07-01T18:39:52.600Z,5.73
2018-07-01T18:42:21.470Z,4.83
2018-07-01T18:44:50.766Z,5.13
2018-07-01T18:47:19.728Z,3.87
2018-07-01T18:49:48.208Z,7.03
2018-07-01T18:52:16.477Z,4.53
2018-07-01T18:54:44.588Z,2.70
2018-07-01T18:57:12.622Z,2.20
2018-07-01T18:59:40.701Z,7.20
2018-07-01T19:02:08.816Z,4.83
2018-07-01T19:04:36.900Z,3.07
2018-07-01T19:07:05.036Z,3.87
2018-07-01T19:09:33.250Z,3.10
2018-07-01T19:12:01.296Z,2.40
2018-07-01T19:14:29.375Z,2.10
2018-07-01T19:16:57.429Z,3.13
2018-07-01T19:19:25.605Z,1.47
2018-07-01T19:21:53.905Z,5.10
2018-07-01T19:24:22.510Z,1.10
2018-07-01T19:26:51.338Z,2.00
2018-07-01T19:29:20.234Z,1.60
2018-07-01T19:31:48.512Z,2.10
2018-07-01T19:34:16.746Z,1.20
2018-07-01T19:36:44.807Z,1.60
2018-07-01T19:39:12.912Z,11.53
2018-07-01T19:41:41.538Z,5.77
2018-07-01T19:44:09.852Z,1.47
2018-07-01T19:46:38.181Z,1.90
2018-07-01T19:49:06.503Z,1.10
2018-07-01T19:51:34.558Z,7.23
2018-07-01T19:54:02.668Z,5.80
2018-07-01T19:56:30.710Z,1.20
2018-07-01T19:58:59.006Z,3.27
2018-07-01T20:01:27.280Z,2.47
2018-07-01T20:03:55.644Z,4.20
2018-07-01T20:06:25.349Z,1.00
2018-07-01T20:08:55.444Z,1.20
2018-07-01T20:11:25.394Z,5.10
2018-07-01T20:13:53.953Z,4.73
2018-07-01T20:16:22.937Z,1.40
2018-07-01T20:18:51.675Z,2.40
2018-07-01T20:21:19.871Z,1.43
2018-07-01T20:23:48.070Z,9.10
2018-07-01T20:26:16.149Z,3.52
2018-07-01T20:28:44.458Z,1.93
2018-07-01T20:31:12.716Z,1.80
2018-07-01T20:33:40.960Z,4.03
2018-07-01T20:36:09.437Z,2.00
2018-07-01T20:38:37.644Z,2.70
2018-07-01T20:41:06.205Z,1.97
2018-07-01T20:43:34.646Z,3.70
2018-07-01T20:46:02.947Z,1.43
2018-07-01T20:48:31.286Z,4.10
2018-07-01T20:50:59.567Z,2.03
2018-07-01T20:53:27.805Z,1.60
2018-07-01T20:55:56.276Z,9.07
2018-07-01T20:58:25.037Z,2.67
2018-07-01T21:00:54.096Z,3.17
2018-07-01T21:03:23.055Z,2.20
2018-07-01T21:05:51.824Z,1.10
2018-07-01T21:08:20.073Z,1.67
2018-07-01T21:10:48.274Z,36.77
2018-07-01T21:13:16.334Z,8.47
2018-07-01T21:15:44.445Z,7.63
2018-07-01T21:18:12.590Z,2.07
2018-07-01T21:20:40.698Z,1.00
2018-07-01T21:23:08.826Z,1.30
2018-07-01T21:25:36.941Z,1.23
2018-07-01T21:28:05.008Z,1.30
2018-07-01T21:30:33.127Z,1.20
2018-07-01T21:33:01.200Z,6.70
2018-07-01T21:35:29.330Z,4.87
2018-07-01T21:37:57.397Z,1.50
2018-07-01T21:40:25.881Z,1.70
2018-07-01T21:42:54.913Z,1.30
2018-07-01T21:45:23.874Z,4.97
2018-07-01T21:47:53.172Z,1.30
2018-07-01T21:50:21.453Z,1.47
2018-07-01T21:52:49.772Z,4.43
2018-07-01T21:55:17.912Z,6.63
2018-07-01T21:57:46.043Z,2.00
2018-07-01T22:00:14.257Z,1.40
2018-07-01T22:02:42.359Z,1.13
2018-07-01T22:05:10.444Z,3.10
2018-07-01T22:07:38.544Z,1.20
2018-07-01T22:10:06.627Z,8.90
2018-07-01T22:12:40.314Z,2.63
2018-07-01T22:15:19.031Z,1.33
2018-07-01T22:17:47.152Z,1.47
2018-07-01T22:20:15.303Z,1.50
2018-07-01T22:22:43.410Z,3.33
2018-07-01T22:25:11.496Z,1.43
2018-07-01T22:27:39.585Z,1.87
2018-07-01T22:30:07.660Z,3.97
2018-07-01T22:32:35.758Z,4.20
2018-07-01T22:35:03.973Z,3.07
2018-07-01T22:37:32.213Z,2.23
2018-07-01T22:40:00.312Z,1.73
2018-07-01T22:42:28.414Z,1.63
2018-07-01T22:44:57.076Z,1.80
2018-07-01T22:47:26.793Z,2.37
2018-07-01T22:49:55.760Z,1.50
2018-07-01T22:52:24.853Z,2.17
2018-07-01T22:54:52.933Z,3.67
2018-07-01T22:57:21.296Z,1.45
2018-07-01T22:59:49.360Z,2.67
2018-07-01T23:02:47.805Z,2.10
2018-07-01T23:05:15.658Z,5.03
2018-07-01T23:07:43.846Z,1.80
2018-07-01T23:10:11.952Z,5.33
2018-07-01T23:12:40.216Z,7.17
2018-07-01T23:15:08.303Z,5.30
2018-07-01T23:17:36.401Z,1.70
2018-07-01T23:20:04.461Z,4.80
2018-07-01T23:22:32.577Z,6.80
2018-07-01T23:25:00.713Z,4.90
2018-07-01T23:27:28.862Z,1.50
2018-07-01T23:29:57.656Z,1.37
2018-07-01T23:32:26.675Z,1.37
2018-07-01T23:34:55.561Z,3.63
2018-07-01T23:37:23.818Z,1.50
2018-07-01T23:39:52.093Z,2.40
2018-07-01T23:42:20.146Z,3.20
2018-07-01T23:44:48.273Z,4.33
2018-07-01T23:47:16.365Z,2.43
2018-07-01T23:49:44.506Z,3.60
2018-07-01T23:52:12.555Z,5.10
2018-07-01T23:54:40.660Z,1.63
2018-07-01T23:57:08.800Z,2.40
2018-07-01T23:59:36.915Z,4.43
